Tiempo atmosférico en la estación meteorológica de Medina De Pomar, Burgos (580 m.)



Fecha
DESCASC
Temp. máxima en grados centígrados (hora)
DESCASC
Temp. mínima en grados centígrados (hora)
DESCASC
Temp. media en grados centígrados
DESCASC
Racha de viento máxima en m/sg (hora)
DESCASC
Velocidad máxima media en intervalos de 10 minutos(hora)
DESCASC
Precipitaciones diarias en mm
DESCASC
Precipitaciones de 00:00 a 06:00 en mm
DESCASC
Precipitaciones de 06:00 a 12:00 en mm
DESCASC
Precipitaciones de 12:00 a 18:00 en mm
DESCASC
Precipitaciones de 18:00 a 24:00 en mm
DESCASC
06-12-2018 12.5 (15:30) 2.5 (01:20) 7.5 3.61 (15:50) 2.22 (17:10) 0 0 0 0 0
05-12-2018 18 (14:20) 0.7 (08:00) 9.3 11.67 (15:40) 6.67 (15:30) 0 0 0 0 0
04-12-2018 16.3 (15:00) 5.3 (23:59) 10.8 4.17 (18:30) 1.94 (18:30) 0 0 0 0 0
03-12-2018 15 (15:40) 5.9 (00:00) 10.5 6.39 (14:50) 2.5 (14:40) 0.6 0 0.6 0 0
02-12-2018 12.4 (13:50) 7.5 (00:00) 9.9 9.44 (17:00) 4.17 (16:40) 0 0 0 0 0
01-12-2018 10.8 (21:00) 2.4 (00:00) 6.6 6.67 (20:00) 3.33 (14:50) 2 0 2 0 0
30-11-2018 11.9 (16:20) 0.9 (00:00) 6.4 7.5 (14:10) 3.89 (14:20) 0.2 0 0.2 0 0
29-11-2018 13.1 (11:50) 4.6 (00:00) 8.9 13.33 (08:00) 6.67 (08:00) 1.2 0 0 1.2 0
28-11-2018 15.3 (14:20) 4.7 (00:00) 10 8.61 (12:10) 4.72 (13:10) 0 0 0 0 0
27-11-2018 11.4 (14:50) -0.5 (-00:0) 5.4 6.67 (15:30) 3.33 (16:00) 0 0 0 0 0
26-11-2018 9.7 (14:20) 3.7 (05:40) 6.7 11.67 (13:20) 4.72 (13:30) 8 7.2 0 0.8 0
25-11-2018 12.2 (16:10) 4.5 (00:00) 8.3 18.89 (01:10) 6.39 (00:50) 3.8 3.8 0 0 0
24-11-2018 11.8 (14:10) 6.6 (00:00) 9.2 21.94 (20:50) 7.5 (23:00) 0 0 0 0 0
23-11-2018 11.6 (15:20) 5.9 (00:00) 8.8 11.11 (13:40) 5 (05:20) 0.2 0.2 0 0 0
22-11-2018 12.1 (11:40) 7.5 (00:00) 9.8 12.78 (02:50) 4.72 (09:00) 0.2 0 0.2 0 0
21-11-2018 13 (14:20) 3 (00:00) 8 11.39 (22:30) 4.72 (14:10) 0.8 0.8 0 0 0
20-11-2018 7.9 (00:00) 3.4 (00:00) 5.7 6.67 (10:50) 3.61 (08:50) 6.2 0 1.6 4.4 0.2
19-11-2018 16 (16:10) 4.7 (00:00) 10.3 7.78 (00:10) 3.89 (00:10) 0.2 0.2 0 0 0
18-11-2018 11.2 (13:50) 6.2 (00:00) 8.7 10 (22:30) 5.56 (22:40) 0.6 0 0 0 0.6
17-11-2018 16.3 (15:30) 4.1 (00:00) 10.2 6.39 (16:50) 3.61 (16:50) 0 0 0 0 0
16-11-2018 16.1 (14:20) 4.7 (00:00) 10.4 7.22 (15:20) 4.17 (15:20) 0 0 0 0 0
15-11-2018 18.5 (15:20) 4.4 (00:00) 11.5 7.5 (16:40) 3.89 (16:20) 0 0 0 0 0
14-11-2018 15.2 (14:00) 3.9 (00:00) 9.5 6.67 (14:20) 3.33 (14:10) 0 0 0 0 0
13-11-2018 17.1 (16:20) 7.8 (00:00) 12.5 4.44 (14:30) 2.22 (15:10) 0 0 0 0 0
12-11-2018 13 (14:00) 9.3 (00:00) 11.2 8.06 (01:00) 3.33 (01:00) 7 0.4 1 3.2 2.4
11-11-2018 17.7 (14:20) 11.9 (00:00) 14.8 18.89 (19:00) 6.11 (19:00) 0.2 0 0 0 0.2
10-11-2018 18 (13:10) 11.2 (00:00) 14.6 18.33 (08:30) 6.94 (06:50) 0.6 0 0 0.4 0.2

Gráficas

Temp. máximas Temp. mínimas Temp. medias Precipitaciones Rachas de viento máximas Velocidades máximas media en intervalos de 10 minutos

Datos horarios

Fecha y hora oficial Temperatura (ºC) Velocidad del viento (km/h) Dirección del viento Racha (km/h) Dirección de racha Precipitación (mm) Presión (hPa) Tendencia (hPa) Humedad (%)
2018-12-09 23:00:00 2.8 5 Sur 8 Sur 0 966.2 0.7 88
2018-12-09 22:00:00 3.8 4 Nordeste 6 Nordeste 0 966 1 85
2018-12-09 21:00:00 4.5 5 Nordeste 7 Nordeste 0 965.8 1.4 83
2018-12-09 20:00:00 6.8 5 Sur 15 Norte 0 965.5 1.6 77
2018-12-09 19:00:00 8.1 5 Noroeste 15 Oeste 0 965 1.7 75
2018-12-09 18:00:00 9.3 6 Oeste 17 Noroeste 0 964.4 1.1 69
2018-12-09 17:00:00 11.2 8 Oeste 25 Noroeste 0 963.9 0.9 63
2018-12-09 16:00:00 11.6 9 Oeste 25 Oeste 0 963.3 -0.5 61
2018-12-09 15:00:00 12.2 14 Noroeste 27 Noroeste 0 963.3 -0.8 60
2018-12-09 14:00:00 12 14 Oeste 30 Oeste 0 963 -1 63
2018-12-09 13:00:00 12.6 10 Oeste 22 Oeste 0 963.8 0.3 62
2018-12-09 12:00:00 11 10 Sudoeste 19 Sudoeste 0 964.1 0.7 72
2018-12-09 11:00:00 6.9 0 Calma 12 Sur 0 964 1.1 87
2018-12-09 10:00:00 4.5 6 Sur 14 Sur 0 963.5 0.7 93
2018-12-09 09:00:00 0.5 2 Este 8 Nordeste 0 963.4 0.8 92
2018-12-09 08:00:00 1.6 2 Sur 17 Sudeste 0 962.9 0.7 92
2018-12-09 07:00:00 0.6 4 Este 10 Sur 0 962.8 0.8 92
2018-12-09 06:00:00 0.5 3 Nordeste 8 Norte 0 962.6 0.7 91
2018-12-09 05:00:00 1 0 Calma 7 Norte 0 962.2 0.1 91
2018-12-09 04:00:00 1.8 2 Noroeste 5 Nordeste 0 962 -0.5 90
2018-12-09 03:00:00 2.7 2 Sudoeste 8 Sudeste 0 961.9 -0.3 90
2018-12-09 02:00:00 3.7 5 Sur 7 Nordeste 0 962.1 0.1 87
2018-12-09 01:00:00 5.1 0 Calma 5 Sur 0 962.5 0.8 86
2018-12-09 00:00:00 5.4 4 Sudeste 8 Sur 0 962.2 0.3 84
2018-12-08 23:00:00 5.9 2 Sudeste 8 Oeste 0 962 0.6 83
2018-12-08 22:00:00 5.3 3 Sur 9 Sudeste 0 961.7 0.4 83
2018-12-08 21:00:00 5.1 2 Nordeste 6 Este 0 961.9 1.1 81
2018-12-08 20:00:00 7.3 4 Sudoeste 12 Oeste 0 961.4 0.8 73
2018-12-08 19:00:00 7.6 2 Sudoeste 18 Noroeste 0 961.3 0.7 71
2018-12-08 18:00:00 9.5 4 Oeste 15 Sudoeste 0 960.8 0.3 64
2018-12-08 17:00:00 11.1 5 Sudoeste 23 Sudoeste 0 960.6 -0.7 59
2018-12-08 16:00:00 13 11 Oeste 23 Sudoeste 0 960.6 -1.4 52
2018-12-08 15:00:00 13.7 9 Noroeste 19 Oeste 0 960.5 -1.9 49
2018-12-08 14:00:00 13.2 9 Sudoeste 28 Oeste 0 961.3 -1.5 54
2018-12-08 13:00:00 11.7 6 Oeste 22 Noroeste 0 962 -0.7 56
2018-12-08 12:00:00 10 6 Oeste 20 Oeste 0 962.4 0.1 61
2018-12-08 11:00:00 7.4 7 Sudeste 14 Sur 0 962.8 0.7 76
2018-12-08 10:00:00 3.6 8 Sudeste 14 Sudeste 0 962.7 1.6 88
2018-12-08 09:00:00 1.6 3 Sudeste 7 Nordeste 0 962.3 1.2 87
2018-12-08 08:00:00 2.8 2 Este 10 Norte 0 962.1 0.6 84
2018-12-08 07:00:00 3.5 4 Sudeste 8 Sudoeste 0 961.1 0 85
2018-12-08 06:00:00 4.7 4 Oeste 14 Oeste 0 961.1 0.1 81
2018-12-08 05:00:00 4.8 0 Calma 14 Nordeste 0 961.5 0.9 84
2018-12-08 04:00:00 4 3 Sur 5 Sur 0 961.1 0.1 86
2018-12-08 03:00:00 4.7 3 Sur 16 Oeste 0 961 -0.3 81
2018-12-08 02:00:00 4.8 2 Sur 8 Sudoeste 0 960.6 -0.9 82
2018-12-08 01:00:00 6.2 5 Sur 11 Sur 0 961 -0.3 78
2018-12-08 00:00:00 8 3 Oeste 9 Oeste 0 961.3 0.3 72
2018-12-07 23:00:00 8.2 3 Oeste 19 Oeste 0 961.5 1 74
2018-12-07 22:00:00 8.4 5 Noroeste 15 Noroeste 0 961.3 1.4 85
2018-12-07 21:00:00 9 6 Oeste 20 Noroeste 0 961 1.6 83
2018-12-07 20:00:00 8.9 8 Oeste 21 Oeste 0 960.5 1.9 84
2018-12-07 19:00:00 9.4 6 Sudoeste 19 Noroeste 0 959.9 2 83
2018-12-07 18:00:00 10.6 5 Oeste 15 Oeste 0 959.4 1.7 70
2018-12-07 17:00:00 11 5 Sudoeste 31 Sudoeste 0 958.6 0.6 67
2018-12-07 16:00:00 11.7 13 Oeste 30 Sudoeste 0 957.9 -0.7 62
2018-12-07 15:00:00 13.4 14 Oeste 28 Oeste 0 957.7 -1.5 55
2018-12-07 14:00:00 12.9 10 Oeste 27 Sudoeste 0 958 -1.5 57
2018-12-07 13:00:00 12.6 4 Sur 14 Sudeste 0 958.6 -1.1 56
2018-12-07 12:00:00 10.5 2 Nordeste 10 Nordeste 0 959.2 -1 66
2018-12-07 11:00:00 6.3 5 Nordeste 10 Nordeste 0 959.5 0 79
2018-12-07 10:00:00 2.2 3 Oeste 8 Noroeste 0 959.7 0.4 92
2018-12-07 09:00:00 -0.5 2 Sudoeste 10 Norte 0 960.2 1.2 92
2018-12-07 08:00:00 -0.3 3 Nordeste 7 Nordeste 0 959.5 0 91
2018-12-07 07:00:00 0.3 4 Nordeste 11 Norte 0 959.3 -0.5 91
2018-12-07 06:00:00 1.1 6 Norte 10 Norte 0 959 -1 91
2018-12-07 05:00:00 1.3 3 Oeste 8 Norte 0 959.5 -0.8 89
2018-12-07 04:00:00 1.9 4 Nordeste 12 Norte 0 959.8 -1.2 88
2018-12-07 03:00:00 3 3 Nordeste 8 Nordeste 0 960 -1.5 88
2018-12-07 02:00:00 3.8 4 Sudeste 11 Este 0 960.3 -1.1 87
2018-12-07 01:00:00 5.2 5 Sur 12 Sudoeste 0 961 -0.5 82
2018-12-07 00:00:00 5.8 0 Calma 5 Noroeste 0 961.5 -0.3 87
2018-12-06 23:00:00 7.2 2 Nordeste 5 Este 0 961.4 -0.6 84
2018-12-06 22:00:00 8.8 0 Calma 6 Sur 0 961.5 -0.4 79
2018-12-06 21:00:00 9.4 3 Sur 9 Sur 0 961.8 0.2 76
2018-12-06 20:00:00 9.8 2 Norte 5 Sur 0 962 0.7 76
2018-12-06 19:00:00 10.6 4 Sur 9 Sur 0 961.9 0.6 71
2018-12-06 18:00:00 11.2 5 Sur 12 Sudeste 0 961.6 0.3 69
2018-12-06 17:00:00 11.8 6 Sur 12 Sudoeste 0 961.3 -0.5 69
2018-12-06 16:00:00 12.2 5 Sudoeste 13 Sudoeste 0 961.3 -0.9 62
2018-12-06 15:00:00 12.3 3 Sur 6 Sur 0 961.3 -1.3 68
2018-12-06 14:00:00 12 0 Calma 5 Noroeste 0 961.8 -0.9 70
2018-12-06 13:00:00 11.9 2 Sudoeste 10 Sur 0 962.2 -0.2 72
2018-12-06 12:00:00 11.7 3 Sur 7 Sudeste 0 962.6 0.6 72
2018-12-06 11:00:00 8.5 3 Sur 5 Sudoeste 0 962.7 1.2 85
2018-12-06 10:00:00 7.1 0 Calma 6 Oeste 0 962.4 1.2 88
2018-12-06 09:00:00 6.7 0 Calma 5 Norte 0 962 1.2 90
2018-12-06 08:00:00 6.3 3 Sudeste 5 Sudeste 0 961.5 0.7 90
2018-12-06 07:00:00 6.2 0 Calma 4 Oeste 0 961.2 0.2 90
2018-12-06 06:00:00 5.8 0 Calma 5 Nordeste 0 960.8 -0.1 91
2018-12-06 05:00:00 5.3 0 Calma 4 Norte 0 960.8 -0.1 91
2018-12-06 04:00:00 4.8 2 Nordeste 4 Nordeste 0 961 0.1 92
2018-12-06 03:00:00 3.6 2 Norte 6 Sudoeste 0 960.9 0.3 92
2018-12-06 02:00:00 2.7 3 Sudoeste 6 Oeste 0 960.9 0.5 91
2018-12-06 01:00:00 2.9 0 Calma 8 Norte 0 960.9 0.8 90
2018-12-06 00:00:00 3.3 3 Nordeste 6 Nordeste 0 960.6 1.2 89
2018-12-05 23:00:00 4.2 2 Nordeste 8 Nordeste 0 960.4 1.4 87
2018-12-05 22:00:00 5.6 2 Nordeste 4 Sur 0 960.1 1.7 84
2018-12-05 21:00:00 7.7 2 Sudoeste 11 Oeste 0 959.4 1.8 78
2018-12-05 20:00:00 9 8 Sudoeste 18 Oeste 0 959 2 74
2018-12-05 19:00:00 9.8 8 Oeste 21 Oeste 0 958.4 2.4 72
2018-12-05 18:00:00 10.7 4 Noroeste 27 Oeste 0 957.6 2 66
2018-12-05 17:00:00 13.2 13 Oeste 29 Noroeste 0 957 1.3 56
2018-12-05 16:00:00 16.1 12 Oeste 42 Sudoeste 0 956 -0.4 41
2018-12-05 15:00:00 16.7 13 Oeste 36 Sudoeste 0 955.6 -1.4 41
2018-12-05 14:00:00 17.9 3 Este 17 Este 0 955.7 -2.1 38
2018-12-05 13:00:00 14.7 4 Sudeste 12 Noroeste 0 956.4 -1.2 65
2018-12-05 12:00:00 12.9 3 Sur 9 Sudeste 0 957 -0.3 75
2018-12-05 11:00:00 9.4 4 Sudeste 8 Sur 0 957.8 1 86
2018-12-05 10:00:00 4.1 2 Sur 5 Nordeste 0 957.6 1.1 94
2018-12-05 09:00:00 1 2 Norte 8 Nordeste 0 957.3 1 93
2018-12-05 08:00:00 0.8 2 Nordeste 4 Sudeste 0 956.8 0.5 93
2018-12-05 07:00:00 1 0 Calma 4 Nordeste 0 956.5 0 93
2018-12-05 06:00:00 1.4 2 Este 5 Nordeste 0 956.3 0 93
2018-12-05 05:00:00 2.2 2 Nordeste 5 Norte 0 956.3 0.1 93
2018-12-05 04:00:00 2.2 2 Norte 5 Noroeste 0 956.5 0.1 92
2018-12-05 03:00:00 2.8 0 Calma 6 Sudeste 0 956.3 -0.2 92
2018-12-05 02:00:00 3.5 2 Este 6 Sur 0 956.2 -0.1 92
2018-12-05 01:00:00 4.3 2 Nordeste 5 Nordeste 0 956.4 0.3 91
2018-12-05 00:00:00 5.3 2 Norte 7 Norte 0 956.5 0.5 90
2018-12-04 23:00:00 6.4 4 Nordeste 8 Sudeste 0 956.3 0.5 90
2018-12-04 22:00:00 8 3 Sur 9 Sudoeste 0 956.1 0.8 86
2018-12-04 21:00:00 9.5 3 Sur 12 Sudoeste 0 956 1.1 84
2018-12-04 20:00:00 9.6 3 Noroeste 10 Oeste 0 955.8 0.9 85
2018-12-04 19:00:00 11.5 2 Oeste 15 Oeste 0 955.3 0.3 80
2018-12-04 18:00:00 12.7 2 Noroeste 5 Noroeste 0 954.9 -0.4 79
2018-12-04 17:00:00 15.7 0 Calma 6 Sur 0 954.9 -1.1 68
2018-12-04 16:00:00 15.8 4 Norte 8 Nordeste 0 955 -1.5 68
2018-12-04 15:00:00 16.2 4 Sudeste 10 Sur 0 955.3 -2 64
2018-12-04 14:00:00 14.8 4 Sudeste 9 Nordeste 0 956 -1.6 69
2018-12-04 13:00:00 13.2 2 Sur 8 Oeste 0 956.5 -1 75
2018-12-04 12:00:00 12.7 3 Este 10 Sudeste 0 957.3 0.2 78
2018-12-04 11:00:00 11.5 0 Calma 4 Noroeste 0 957.6 0.6 87
2018-12-04 10:00:00 10.4 0 Calma 3 Noroeste 0 957.5 0.9 90
2018-12-04 09:00:00 9.8 0 Calma 3 Oeste 0 957.1 0.6 91
2018-12-04 08:00:00 9.6 0 Calma 4 Sudoeste 0 957 0.6 91
2018-12-04 07:00:00 9.6 0 Calma 5 Noroeste 0 956.6 -0.1 90
2018-12-04 06:00:00 9.8 2 Nordeste 4 Nordeste 0 956.5 -0.3 90
2018-12-04 05:00:00 9.9 2 Norte 5 Este 0 956.4 -0.3 90
2018-12-04 04:00:00 10 2 Sudoeste 6 Norte 0 956.7 -0.2 89
2018-12-04 03:00:00 9.9 0 Calma 7 Sudoeste 0 956.8 -0.2 89
2018-12-04 02:00:00 9.9 2 Norte 7 Sudoeste 0 956.7 -0.1 89
2018-12-04 01:00:00 9.8 3 Nordeste 8 Oeste 0 956.9 -0.1 89
2018-12-04 00:00:00 9.5 0 Calma 7 Sudoeste 0 957 0.2 88
2018-12-03 23:00:00 11.1 2 Sudeste 9 Sudoeste 0 956.8 0.3 84
2018-12-03 22:00:00 11.6 3 Oeste 12 Oeste 0 957 1 81
2018-12-03 21:00:00 11.4 3 Este 6 Sudeste 0 956.8 1.3 83
2018-12-03 20:00:00 11.7 5 Este 10 Norte 0 956.5 1.2 81
2018-12-03 19:00:00 12 2 Nordeste 9 Este 0 956 1.2 80
2018-12-03 18:00:00 12.9 0 Calma 14 Oeste 0 955.5 1 75
2018-12-03 17:00:00 14 4 Sudoeste 10 Sudeste 0 955.3 0.3 69
2018-12-03 16:00:00 14.7 3 Este 14 Noroeste 0 954.8 -0.4 67
2018-12-03 15:00:00 13.2 6 Sudoeste 23 Oeste 0 954.5 -1.4 72
2018-12-03 14:00:00 12.7 4 Este 15 Oeste 0 955 -0.4 74
2018-12-03 13:00:00 11.9 8 Oeste 16 Noroeste 0 955.2 0.8 80
2018-12-03 12:00:00 11.3 2 Sudoeste 17 Oeste 0.6 955.9 1.8 84
2018-12-03 11:00:00 11.2 4 Norte 9 Nordeste 0 955.4 1 77
2018-12-03 10:00:00 11.1 4 Nordeste 10 Este 0 954.4 0 77
2018-12-03 09:00:00 8.8 0 Calma 8 Norte 0 954.1 -0.2 83
2018-12-03 08:00:00 8.6 4 Norte 11 Este 0 954.4 0 84
2018-12-03 07:00:00 8.7 7 Norte 10 Este 0 954.4 0 82
2018-12-03 06:00:00 8.8 3 Este 13 Nordeste 0 954.3 -0.3 83
2018-12-03 05:00:00 8.2 3 Nordeste 10 Sudeste 0 954.4 -0.2 86
2018-12-03 04:00:00 7.8 6 Sudeste 13 Este 0 954.4 -0.4 88
2018-12-03 03:00:00 6 4 Nordeste 8 Noroeste 0 954.6 0.2 87
2018-12-03 02:00:00 7 4 Este 14 Noroeste 0 954.6 0.1 83
2018-12-03 01:00:00 8.8 5 Nordeste 19 Sudoeste 0 954.8 0.6 79
2018-12-03 00:00:00 8.7 3 Sur 12 Oeste 0 954.4 0.4 80
2018-12-02 23:00:00 9.9 5 Sudoeste 19 Sudoeste 0 954.5 0.4 76
2018-12-02 22:00:00 10.8 8 Sudoeste 24 Sudoeste 0 954.2 0.7 71
2018-12-02 21:00:00 10.6 9 Sudoeste 21 Sudoeste 0 954 0.7 73
2018-12-02 20:00:00 9.9 5 Oeste 19 Oeste 0 954.1 1 75
2018-12-02 19:00:00 10.1 7 Oeste 16 Sudoeste 0 953.5 0.5 73
2018-12-02 18:00:00 11 10 Sudoeste 28 Oeste 0 953.3 0.5 69
2018-12-02 17:00:00 11.5 15 Oeste 34 Oeste 0 953.1 -0.3 66
2018-12-02 16:00:00 12 11 Oeste 22 Sudoeste 0 953 -0.9 64
2018-12-02 15:00:00 12.3 12 Oeste 26 Oeste 0 952.8 -1.6 64
2018-12-02 14:00:00 12.1 12 Oeste 22 Oeste 0 953.4 -0.8 65
2018-12-02 13:00:00 12 9 Sudoeste 31 Sudoeste 0 953.9 -0.6 62
2018-12-02 12:00:00 10.8 5 Nordeste 19 Norte 0 954.4 0.1 68
2018-12-02 11:00:00 10.1 5 Nordeste 11 Nordeste 0 954.2 0.1 72
2018-12-02 10:00:00 9 4 Nordeste 12 Nordeste 0 954.5 0.8 78
2018-12-02 09:00:00 8.1 3 Sudeste 10 Norte 0 954.3 0.7 80
2018-12-02 08:00:00 8.6 4 Norte 13 Oeste 0 954.1 0.6 78
2018-12-02 07:00:00 8.3 4 Noroeste 17 Sudoeste 0 953.7 -0.1 80
2018-12-02 06:00:00 7.9 3 Sur 12 Sudoeste 0 953.6 0.2 82
2018-12-02 05:00:00 8.8 6 Oeste 20 Sudoeste 0 953.5 0 78
2018-12-02 04:00:00 9.2 6 Oeste 22 Oeste 0 953.8 0 77
2018-12-02 03:00:00 8.9 3 Oeste 14 Oeste 0 953.4 0.2 76
2018-12-02 02:00:00 9.4 12 Oeste 27 Oeste 0 953.5 0.2 75
2018-12-02 01:00:00 7.9 4 Noroeste 9 Oeste 0 953.8 0.2 81
2018-12-02 00:00:00 9.1 4 Sur 19 Sudoeste 0 953.2 -0.2 75
2018-12-01 23:00:00 10.2 5 Noroeste 17 Oeste 0 953.3 -0.2 72
2018-12-01 22:00:00 10.4 5 Sudoeste 21 Oeste 0 953.6 0.1 71
2018-12-01 21:00:00 10.8 7 Sur 23 Oeste 0 953.4 0 68
2018-12-01 20:00:00 10.3 9 Sudoeste 24 Sur 0 953.5 0.6 71
2018-12-01 19:00:00 10.1 9 Sudoeste 21 Sudoeste 0 953.5 0.7 73
2018-12-01 18:00:00 9.7 4 Norte 13 Este 0 953.4 0 74
2018-12-01 17:00:00 10.3 5 Sur 14 Norte 0 952.9 -0.5 71
2018-12-01 16:00:00 9.8 6 Sudeste 22 Sudoeste 0 952.8 -1.1 75
2018-12-01 15:00:00 9.8 8 Oeste 22 Oeste 0 953.4 -1.3 72
2018-12-01 14:00:00 10.1 8 Oeste 21 Oeste 0 953.4 -1.1 69
2018-12-01 13:00:00 9.9 9 Oeste 20 Oeste 0 953.9 -0.5 71
2018-12-01 12:00:00 9.1 4 Noroeste 9 Oeste 0 954.7 1 75
2018-12-01 11:00:00 7.8 3 Sudoeste 9 Sudeste 0 954.5 0.8 84
2018-12-01 10:00:00 6.5 4 Norte 8 Sudeste 0.8 954.4 1 90
2018-12-01 09:00:00 6 3 Sudeste 8 Sur 0.2 953.7 0.4 89
2018-12-01 08:00:00 5.9 2 Nordeste 11 Nordeste 1 953.7 0.6 88
2018-12-01 07:00:00 5.7 5 Norte 8 Norte 0 953.4 -0.9 85
2018-12-01 06:00:00 5.1 3 Nordeste 9 Noroeste 0 953.3 -1.4 86
2018-12-01 05:00:00 4.4 3 Nordeste 8 Sudeste 0 953.1 -1.6 88
2018-12-01 04:00:00 4.2 3 Este 8 Nordeste 0 954.3 -1.1 88
2018-12-01 03:00:00 3.7 3 Noroeste 8 Norte 0 954.7 -1.3 89
2018-12-01 02:00:00 2.9 3 Nordeste 5 Nordeste 0 954.7 -1.2 90
2018-12-01 01:00:00 2.5 0 Calma 8 Nordeste 0 955.4 -0.6 89
2018-12-01 00:00:00 2.9 3 Nordeste 6 Nordeste 0 956 0 88
2018-11-30 23:00:00 3.4 3 Este 7 Sudoeste 0 955.9 0.3 88
2018-11-30 22:00:00 3.9 5 Sur 8 Sur 0 956 1 85
2018-11-30 21:00:00 5.7 2 Norte 9 Oeste 0 956 1.5 81
2018-11-30 20:00:00 6.5 4 Oeste 9 Oeste 0 955.6 1.2 76
2018-11-30 19:00:00 7.2 2 Oeste 8 Oeste 0 955 1.1 73
2018-11-30 18:00:00 8.7 4 Sudoeste 18 Sudoeste 0 954.5 0.6 68
2018-11-30 17:00:00 10 7 Oeste 19 Oeste 0 954.4 0.5 61
2018-11-30 16:00:00 11.6 12 Sudoeste 24 Oeste 0 953.9 0 54
2018-11-30 15:00:00 10.6 9 Sudoeste 27 Sudoeste 0 953.9 -0.3 59
2018-11-30 14:00:00 9 11 Sudoeste 22 Sudoeste 0 953.9 -0.2 68
2018-11-30 13:00:00 9 10 Oeste 23 Sudoeste 0 953.9 0.4 68
2018-11-30 12:00:00 8.2 10 Oeste 23 Oeste 0 954.2 1.3 75
2018-11-30 11:00:00 6.5 5 Sudoeste 14 Oeste 0 954.1 2 82
2018-11-30 10:00:00 3 3 Este 6 Nordeste 0 953.5 2 92
2018-11-30 09:00:00 1.3 2 Sur 8 Nordeste 0.2 952.9 1.9 92
2018-11-30 08:00:00 1 4 Nordeste 6 Nordeste 0 952.1 1.5 92
2018-11-30 07:00:00 1.5 2 Este 6 Oeste 0 951.5 1 91
2018-11-30 06:00:00 1.7 2 Nordeste 4 Nordeste 0 951 0.7 91
2018-11-30 05:00:00 2.6 0 Calma 9 Norte 0 950.6 0.2 91
2018-11-30 04:00:00 2.8 0 Calma 6 Nordeste 0 950.5 0 89
2018-11-30 03:00:00 4.4 2 Nordeste 6 Sudeste 0 950.3 -0.1 87
2018-11-30 02:00:00 6.1 0 Calma 13 Noroeste 0 950.4 0 84
2018-11-30 01:00:00 6.6 3 Norte 7 Sudoeste 0 950.5 0.4 84
2018-11-30 00:00:00 7.8 2 Nordeste 21 Oeste 0 950.4 0.2 79
2018-11-29 23:00:00 8.4 9 Oeste 23 Noroeste 0 950.4 0.6 76
2018-11-29 22:00:00 8.4 7 Norte 24 Noroeste 0 950.1 0.2 77
2018-11-29 21:00:00 8.2 5 Oeste 15 Oeste 0 950.2 0.7 79
2018-11-29 20:00:00 7.8 5 Sudeste 15 Sudeste 0 949.8 0.1 81
2018-11-29 19:00:00 7 3 Sur 15 Oeste 0 949.9 -0.2 84
2018-11-29 18:00:00 6.8 5 Sur 9 Sur 0 949.5 -1.6 85
2018-11-29 17:00:00 7.3 2 Sudoeste 14 Oeste 1.2 949.7 -0.6 81
2018-11-29 16:00:00 8.2 4 Oeste 46 Sudoeste 0 950.1 -0.2 70
2018-11-29 15:00:00 10.6 16 Sudoeste 32 Sudoeste 0 951.1 0.2 47
2018-11-29 14:00:00 11.8 14 Sudoeste 35 Oeste 0 950.3 -1 41
2018-11-29 13:00:00 12.4 7 Sudoeste 37 Sur 0 950.3 -1.2 35
2018-11-29 12:00:00 13.1 6 Sur 36 Sudoeste 0 950.9 0.1 29
2018-11-29 11:00:00 12.8 14 Sudoeste 40 Sudoeste 0 951.3 1.5 28
2018-11-29 10:00:00 9.5 3 Noroeste 30 Sudoeste 0 951.5 1.9 38
2018-11-29 09:00:00 10.3 14 Sudoeste 45 Sudoeste 0 950.8 1.4 33
2018-11-29 08:00:00 10.9 24 Sudoeste 48 Oeste 0 949.8 0 32
2018-11-29 07:00:00 10.5 6 Sudoeste 23 Sudoeste 0 949.6 -0.4 29
2018-11-29 06:00:00 10.4 6 Sur 39 Sudoeste 0 949.4 -1 30
2018-11-29 05:00:00 9.8 15 Sur 37 Sur 0 949.8 -1 34
2018-11-29 04:00:00 9.4 5 Sudoeste 22 Sudeste 0 950 -1.5 39
2018-11-29 03:00:00 8.1 6 Sudoeste 22 Sudoeste 0 950.4 -1.8 51
2018-11-29 02:00:00 5.1 3 Sur 9 Sudoeste 0 950.8 -1.9 68
2018-11-29 01:00:00 5.3 3 Noroeste 10 Norte 0 951.5 -1.5 68
2018-11-29 00:00:00 5.3 2 Noroeste 9 Oeste 0 952.2 -0.8 68
2018-11-28 23:00:00 6.3 3 Sudoeste 11 Oeste 0 952.7 -0.4 66
2018-11-28 22:00:00 5.7 5 Sur 13 Sudoeste 0 953 -0.2 69
2018-11-28 21:00:00 5.1 2 Noroeste 9 Sudeste 0 953 0 74
2018-11-28 13:00:00 -- -- -- -- -- -- -- -- --
2018-11-28 12:00:00 12.1 9 Oeste 26 Oeste 0 954.8 0.3 46
2018-11-28 11:00:00 10.8 7 Nordeste 19 Nordeste 0 955.2 1.1 50
2018-11-28 10:00:00 8.7 7 Noroeste 22 Noroeste 0 954.9 1 60
2018-11-28 09:00:00 7.9 5 Norte 22 Oeste 0 954.5 0.8 62
2018-11-28 08:00:00 7.9 7 Oeste 22 Oeste 0 954.1 0.3 63
2018-11-28 07:00:00 7.1 6 Noroeste 13 Noroeste 0 953.9 0.1 65
2018-11-28 06:00:00 8.3 6 Noroeste 17 Noroeste 0 953.7 0.1 59
2018-11-28 05:00:00 8.2 4 Noroeste 20 Noroeste 0 953.8 0.1 62
2018-11-28 04:00:00 8.2 5 Oeste 14 Sudoeste 0 953.8 -0.3 60
2018-11-28 03:00:00 8.2 3 Nordeste 15 Noroeste 0 953.6 -0.4 64
2018-11-28 02:00:00 8.1 4 Norte 18 Sudoeste 0 953.7 -0.7 68
2018-11-28 01:00:00 7.5 6 Sudoeste 22 Oeste 0 954.1 0 70
2018-11-28 00:00:00 6.6 4 Nordeste 11 Norte 0 954 -0.2 74
2018-11-27 23:00:00 5.2 3 Norte 9 Este 0 954.4 -0.2 80
2018-11-27 22:00:00 6 4 Nordeste 9 Nordeste 0 954.1 -0.3 75
2018-11-27 21:00:00 6.4 3 Sudeste 8 Norte 0 954.2 0.1 72
2018-11-27 20:00:00 8.2 6 Noroeste 12 Norte 0 954.6 0.8 62
2018-11-27 19:00:00 8.2 5 Nordeste 15 Oeste 0 954.4 0.9 62
2018-11-27 18:00:00 9 6 Oeste 23 Noroeste 0 954.1 0.5 59
2018-11-27 17:00:00 10 5 Oeste 21 Sudoeste 0 953.8 -0.4 58
2018-11-27 16:00:00 10.9 12 Oeste 24 Noroeste 0 953.5 -1.4 54
2018-11-27 15:00:00 11.3 11 Oeste 23 Oeste 0 953.6 -2.1 51
2018-11-27 14:00:00 10.2 4 Este 9 Sudeste 0 954.2 -1.6 58
2018-11-27 13:00:00 8.3 3 Este 7 Nordeste 0 954.9 -0.4 66
2018-11-27 12:00:00 6.6 3 Nordeste 9 Nordeste 0 955.7 0.7 73
2018-11-27 11:00:00 4.1 3 Nordeste 8 Este 0 955.8 0.8 87
2018-11-27 10:00:00 1.7 4 Norte 6 Nordeste 0 955.3 0.6 93
2018-11-27 09:00:00 -0.2 2 Sudeste 7 Nordeste 0 955 0.1 93
2018-11-27 08:00:00 -0.2 3 Oeste 5 Este 0 955 0.1 93
2018-11-27 07:00:00 0.3 3 Oeste 6 Este 0 954.7 -0.3 92
2018-11-27 06:00:00 0.9 0 Calma 6 Este 0 954.9 0 92
2018-11-27 05:00:00 1.4 0 Calma 8 Sudoeste 0 954.9 -0.1 91
2018-11-27 04:00:00 2 3 Nordeste 7 Sudeste 0 955 -0.1 90
2018-11-27 03:00:00 3.1 6 Sur 11 Sur 0 954.9 0.3 89
2018-11-27 02:00:00 3.9 3 Sudeste 6 Sur 0 955 0.2 86
2018-11-27 01:00:00 4.9 5 Sur 8 Sur 0 955.1 0.7 86
2018-11-27 00:00:00 5.7 3 Oeste 10 Oeste 0 954.6 0.9 84
2018-11-26 23:00:00 6.5 3 Noroeste 14 Oeste 0 954.8 1.6 82
2018-11-26 22:00:00 7.3 7 Oeste 25 Oeste 0 954.4 2.2 78
2018-11-26 21:00:00 7.3 6 Noroeste 23 Noroeste 0 953.7 2.3 79
2018-11-26 20:00:00 7.2 4 Noroeste 14 Oeste 0 953.2 2.6 81
2018-11-26 19:00:00 7 7 Oeste 20 Noroeste 0 952.2 2.6 78
2018-11-26 18:00:00 7 9 Oeste 31 Oeste 0.2 951.4 2.5 78
2018-11-26 17:00:00 7.8 13 Oeste 26 Oeste 0 950.6 2.5 80
2018-11-26 16:00:00 8.3 6 Noroeste 33 Oeste 0.4 949.6 1.5 80
2018-11-26 15:00:00 8.7 12 Oeste 36 Noroeste 0 948.9 1.1 78
2018-11-26 14:00:00 8.8 16 Noroeste 42 Noroeste 0.2 948.1 1.2 78
2018-11-26 13:00:00 7.5 13 Noroeste 31 Noroeste 0 948.1 1.8 78
2018-11-26 12:00:00 7.6 13 Noroeste 39 Noroeste 0 947.8 2.8 77
2018-11-26 11:00:00 6.5 6 Noroeste 21 Oeste 0 946.9 3.3 80
2018-11-26 10:00:00 6.1 6 Oeste 14 Oeste 0 946.3 3.8 81
2018-11-26 09:00:00 4.9 5 Oeste 23 Oeste 0 945 3.5 85
2018-11-26 08:00:00 4.3 5 Oeste 14 Noroeste 0 943.6 3.4 87
2018-11-26 07:00:00 4.1 3 Noroeste 10 Sudoeste 0 942.5 3.1 88
2018-11-26 06:00:00 3.7 0 Calma 10 Sudoeste 0.4 941.5 3 89
2018-11-26 05:00:00 4.1 5 Oeste 16 Noroeste 1.8 940.2 2.8 90
2018-11-26 04:00:00 4.3 9 Norte 23 Norte 3.8 939.4 1.9 86
2018-11-26 03:00:00 5.2 6 Norte 10 Norte 1 938.5 0 90
2018-11-26 02:00:00 5.1 5 Nordeste 8 Norte 0.2 937.4 -2.1 87
2018-11-26 01:00:00 5 0 Calma 6 Sur 0 937.5 -2.3 86
2018-11-26 00:00:00 5.2 3 Nordeste 9 Nordeste 0 938.5 -1.9 84
2018-11-25 23:00:00 5.2 2 Norte 8 Sur 0 939.5 -1.3 86
2018-11-25 22:00:00 5.5 3 Nordeste 8 Nordeste 0 939.8 -0.9 82
2018-11-25 21:00:00 5.7 3 Nordeste 7 Nordeste 0 940.4 -0.3 80
2018-11-25 20:00:00 6.1 0 Calma 8 Nordeste 0 940.8 -0.3 77
2018-11-25 19:00:00 6.9 0 Calma 5 Sudeste 0 940.7 -0.7 76
2018-11-25 18:00:00 8.4 4 Sudeste 6 Sudeste 0 940.7 -1.3 65
2018-11-25 17:00:00 10.6 4 Sudeste 8 Sur 0 941.1 -1.6 52
2018-11-25 16:00:00 11.8 4 Nordeste 10 Nordeste 0 941.4 -1.9 42
2018-11-25 15:00:00 10.9 4 Noroeste 18 Noroeste 0 942 -1.9 43
2018-11-25 14:00:00 11.1 7 Noroeste 22 Oeste 0 942.7 -1 41
2018-11-25 13:00:00 10 6 Sudoeste 13 Oeste 0 943.3 -0.1 46
2018-11-25 12:00:00 10.2 6 Oeste 18 Oeste 0 943.9 0.6 48
2018-11-25 11:00:00 9.1 6 Sudoeste 16 Sudoeste 0 943.7 1.1 60
2018-11-25 10:00:00 8 3 Sur 25 Oeste 0 943.4 1.6 66
2018-11-25 09:00:00 4.8 4 Sudeste 13 Sudoeste 0 943.3 2.3 79
2018-11-25 08:00:00 6 4 Oeste 13 Oeste 0 942.6 2.4 76
2018-11-25 07:00:00 6.4 4 Oeste 18 Oeste 0 941.8 2.3 82
2018-11-25 06:00:00 7 9 Oeste 23 Noroeste 0.4 941 1.2 82
2018-11-25 05:00:00 7.4 3 Oeste 13 Noroeste 2.2 940.2 0.8 89
2018-11-25 04:00:00 8 5 Norte 15 Oeste 1 939.5 0.6 90
2018-11-25 03:00:00 8.6 6 Noroeste 28 Oeste 0.2 939.8 0 84
2018-11-25 02:00:00 10.2 13 Oeste 68 Sudoeste 0 939.4 -0.5 71
2018-11-25 01:00:00 10.2 22 Sudoeste 63 Sudoeste 0 938.9 -1.6 63
2018-11-25 00:00:00 9.7 18 Sudoeste 68 Sur 0 939.8 -2.1 64
2018-11-24 23:00:00 10.3 27 Sudoeste 73 Sur 0 939.9 -2.5 60
2018-11-24 22:00:00 10 18 Sur 60 Sudoeste 0 940.5 -2.5 60
2018-11-24 21:00:00 10.6 22 Sudoeste 79 Sur 0 941.9 -1.7 56
2018-11-24 20:00:00 10.7 17 Sudoeste 48 Sudoeste 0 942.4 -1.5 60
2018-11-24 19:00:00 10.8 14 Sur 47 Sur 0 943 -1.4 60
2018-11-24 18:00:00 10.7 11 Sur 40 Sudeste 0 943.6 -1.6 59
2018-11-24 17:00:00 11.1 9 Sur 39 Sudoeste 0 943.9 -2 57
2018-11-24 16:00:00 11.1 10 Sur 40 Sudoeste 0 944.4 -2.2 59
2018-11-24 15:00:00 11.3 14 Sudoeste 39 Sur 0 945.2 -2.2 61
2018-11-24 14:00:00 11.6 15 Sudoeste 35 Sur 0 945.9 -1.5 62
2018-11-24 13:00:00 10.1 13 Sudoeste 35 Sudoeste 0 946.6 -0.6 65
2018-11-24 12:00:00 9.2 11 Sudoeste 25 Sudoeste 0 947.4 0.4 69
2018-11-24 11:00:00 8.8 9 Sudoeste 24 Sur 0 947.4 0.9 70
2018-11-24 10:00:00 8.4 3 Nordeste 18 Sur 0 947.2 1.2 71
2018-11-24 09:00:00 8.5 5 Sur 19 Noroeste 0 947 0.7 70
2018-11-24 08:00:00 8.3 4 Sudeste 10 Noroeste 0 946.5 0.2 71
2018-11-24 07:00:00 8.2 3 Nordeste 22 Sudoeste 0 946 -0.8 70
2018-11-24 06:00:00 8.2 8 Sudoeste 32 Sudoeste 0 946.3 -0.7 71
2018-11-24 05:00:00 8.1 10 Sudoeste 33 Sudoeste 0 946.3 -0.8 71
2018-11-24 04:00:00 8.4 12 Sudoeste 30 Sudoeste 0 946.8 -0.3 69
2018-11-24 03:00:00 8.2 13 Sudoeste 26 Sur 0 947 0.2 69
2018-11-24 02:00:00 7.7 3 Este 17 Sudoeste 0 947.1 0.6 71
2018-11-24 01:00:00 7.9 3 Noroeste 15 Oeste 0 947.1 0.8 69
2018-11-24 00:00:00 6.6 5 Noroeste 19 Oeste 0 946.8 0.8 73
2018-11-23 23:00:00 6.4 3 Nordeste 23 Oeste 0 946.5 0.6 72
2018-11-23 22:00:00 7.4 7 Sudoeste 17 Sudoeste 0 946.3 0.7 69
2018-11-23 21:00:00 7.6 4 Sur 19 Sur 0 946 0.8 66
2018-11-23 20:00:00 7.5 5 Sudoeste 22 Oeste 0 945.9 1.1 67
2018-11-23 19:00:00 7.3 5 Sudoeste 22 Oeste 0 945.6 1 66
2018-11-23 18:00:00 8.3 7 Sudoeste 34 Sudoeste 0 945.2 0.7 61
2018-11-23 17:00:00 9.8 13 Sudoeste 38 Sudoeste 0 944.8 0.2 56
2018-11-23 16:00:00 11.3 14 Sudoeste 35 Sudoeste 0 944.6 0 51
2018-11-23 15:00:00 11.4 13 Sudoeste 36 Sudoeste 0 944.5 -0.7 48
2018-11-23 14:00:00 11.2 16 Sudoeste 40 Oeste 0 944.6 -0.6 51
2018-11-23 13:00:00 10.6 12 Sudoeste 36 Oeste 0 944.6 -0.6 59
2018-11-23 12:00:00 9.2 12 Sudoeste 33 Oeste 0 945.2 0.2 64
2018-11-23 11:00:00 8.3 11 Sudoeste 25 Sur 0 945.2 0.2 67
2018-11-23 10:00:00 7.3 5 Sudeste 19 Sur 0 945.2 0.1 76
2018-11-23 09:00:00 6.6 10 Sur 24 Sur 0 945 0.3 78
2018-11-23 08:00:00 6.5 10 Sur 17 Sur 0 945 0.7 79
2018-11-23 07:00:00 6.5 7 Sudeste 15 Sur 0 945.1 0.1 81
2018-11-23 06:00:00 6.7 8 Sudeste 32 Sudeste 0 944.7 -0.3 80
2018-11-23 05:00:00 7.4 12 Sudeste 29 Sur 0.2 944.3 -0.7 75
2018-11-23 04:00:00 8.1 9 Sur 20 Sur 0 945 -0.2 76
2018-11-23 03:00:00 9 7 Sudeste 18 Sudeste 0 945 -0.6 70
2018-11-23 02:00:00 9.2 11 Sudeste 26 Este 0 945 -0.6 69
2018-11-23 01:00:00 9.3 4 Sur 17 Sudeste 0 945.2 -0.4 69
2018-11-23 00:00:00 9.4 6 Sudeste 21 Sudeste 0 945.6 -0.3 67
2018-11-22 23:00:00 10 9 Sur 29 Sur 0 945.6 -0.4 64
2018-11-22 22:00:00 9.2 10 Sudeste 25 Sudeste 0 945.6 -0.4 70
2018-11-22 21:00:00 9.4 9 Sudeste 20 Sudeste 0 945.9 0.2 69
2018-11-22 20:00:00 8.8 3 Sur 20 Sur 0 946 0.5 72
2018-11-22 19:00:00 9.5 9 Sur 23 Sur 0 946 0.4 64
2018-11-22 18:00:00 10 10 Sur 34 Sudoeste 0 945.7 0 61
2018-11-22 17:00:00 10.4 12 Sur 31 Sur 0 945.5 -0.6 59
2018-11-22 16:00:00 10.9 11 Sudoeste 36 Sudoeste 0 945.6 -1 57
2018-11-22 15:00:00 10.5 11 Sudoeste 38 Sur 0 945.7 -1.4 59
2018-11-22 14:00:00 10.9 13 Sur 32 Sur 0 946.1 -1.1 56
2018-11-22 13:00:00 11.6 12 Sudoeste 39 Sur 0 946.6 -0.4 56
2018-11-22 12:00:00 11.7 14 Sudoeste 34 Oeste 0 947.1 0.5 54
2018-11-22 11:00:00 10.5 10 Sur 39 Sudoeste 0 947.2 1.3 58
2018-11-22 10:00:00 8.3 16 Sudoeste 39 Sudoeste 0.2 947 1.2 71
2018-11-22 09:00:00 7.9 17 Sudoeste 40 Sudoeste 0 946.6 1 68
2018-11-22 08:00:00 8 12 Sudoeste 26 Sur 0 945.9 0.4 67
2018-11-22 07:00:00 7.8 11 Sudoeste 34 Oeste 0 945.8 0.2 68
2018-11-22 06:00:00 7.5 11 Sudoeste 32 Sudoeste 0 945.6 0.3 68
2018-11-22 05:00:00 7.6 12 Sudoeste 40 Sudoeste 0 945.5 0.1 68
2018-11-22 04:00:00 8 9 Sudoeste 31 Sudoeste 0 945.6 0.2 68
2018-11-22 03:00:00 8.2 15 Sudoeste 46 Sudoeste 0 945.3 0.2 66
2018-11-22 02:00:00 7.7 8 Sudoeste 41 Oeste 0 945.4 0.7 68
2018-11-22 01:00:00 8.6 14 Sudoeste 39 Oeste 0 945.4 0.9 64
2018-11-22 00:00:00 8.5 12 Sudoeste 40 Sudoeste 0 945.1 1 67
2018-11-21 23:00:00 8.5 11 Sudoeste 41 Sudoeste 0 944.7 1 66
2018-11-21 22:00:00 8.7 13 Sudoeste 40 Sudoeste 0 944.5 1.4 66
2018-11-21 21:00:00 8.9 10 Sudoeste 33 Sudoeste 0 944.1 1.6 65
2018-11-21 20:00:00 9.1 12 Sur 36 Sudoeste 0 943.7 1.6 65
2018-11-21 19:00:00 9.3 11 Sur 33 Sudoeste 0 943.1 1.6 65
2018-11-21 18:00:00 9.6 12 Sudoeste 32 Sudoeste 0 942.5 1.2 64
2018-11-21 17:00:00 9.1 5 Oeste 31 Oeste 0 942.1 0.7 72
2018-11-21 16:00:00 11.2 12 Sudoeste 37 Sudoeste 0 941.5 0.4 57
2018-11-21 15:00:00 12.6 12 Sudoeste 36 Oeste 0 941.3 0.1 56
2018-11-21 14:00:00 12.4 12 Sudoeste 35 Sudoeste 0 941.4 0.6 62
2018-11-21 13:00:00 11.1 13 Sudoeste 26 Sudoeste 0 941.1 0.7 73
2018-11-21 12:00:00 6.7 5 Sur 12 Sudeste 0 941.2 1.6 91
2018-11-21 11:00:00 4.9 2 Nordeste 8 Nordeste 0 940.8 1.6 92
2018-11-21 10:00:00 3.9 3 Oeste 7 Sudoeste 0 940.4 1.8 93
2018-11-21 09:00:00 3.4 2 Sudoeste 5 Sudoeste 0 939.6 1.5 93
2018-11-21 08:00:00 3.5 0 Calma 11 Norte 0 939.2 1.5 92
2018-11-21 07:00:00 3 3 Nordeste 7 Sur 0 938.6 1.1 92
2018-11-21 06:00:00 3.1 2 Sudeste 9 Sudeste 0 938.1 0.8 91
2018-11-21 05:00:00 3.5 3 Sur 7 Sudeste 0.2 937.7 0.3 91
2018-11-21 04:00:00 3.3 2 Nordeste 4 Nordeste 0 937.5 0 91
2018-11-21 03:00:00 3.2 3 Sur 11 Sudeste 0.2 937.3 -0.1 91
2018-11-21 02:00:00 3.5 5 Sudeste 8 Sur 0.4 937.4 0.1 91
2018-11-21 01:00:00 3.5 3 Sur 8 Sur 0 937.5 0.5 91
2018-11-21 00:00:00 3.5 6 Sudeste 12 Sudeste 0 937.4 0.9 91
2018-11-20 23:00:00 3.6 3 Sur 5 Sur 0 937.3 1.2 90
2018-11-20 22:00:00 3.6 0 Calma 7 Sudeste 0 937 1.5 89
2018-11-20 21:00:00 3.5 3 Sudeste 8 Sudeste 0 936.5 1.4 90
2018-11-20 20:00:00 3.5 4 Sur 8 Sudeste 0.2 936.1 1.5 90
2018-11-20 19:00:00 3.6 5 Sur 8 Sur 0 935.5 1.3 90
2018-11-20 18:00:00 3.7 3 Sur 6 Sudeste 0.2 935.1 1.3 89
2018-11-20 17:00:00 3.8 4 Sur 8 Sudeste 0 934.6 0.9 88
2018-11-20 16:00:00 4.1 0 Calma 9 Este 0.2 934.2 0.4 84
2018-11-20 15:00:00 4.1 0 Calma 10 Este 0.4 933.8 -0.2 84
2018-11-20 14:00:00 3.8 6 Este 14 Nordeste 1.8 933.7 0.2 86
2018-11-20 13:00:00 3.7 8 Este 20 Nordeste 1.8 933.8 0.6 86
2018-11-20 12:00:00 4.2 7 Norte 22 Nordeste 1.4 934 1 88
2018-11-20 11:00:00 4.4 12 Nordeste 24 Nordeste 0.2 933.5 0.7 89
2018-11-20 10:00:00 5 11 Nordeste 22 Norte 0 933.2 0.6 85
2018-11-20 09:00:00 5.3 10 Nordeste 22 Nordeste 0 933 0.1 85
2018-11-20 08:00:00 5.7 11 Nordeste 20 Nordeste 0 932.8 -0.3 85
2018-11-20 07:00:00 6.2 8 Nordeste 17 Nordeste 0 932.6 -0.8 85
2018-11-20 06:00:00 6.7 4 Nordeste 14 Nordeste 0 932.9 -0.9 85
2018-11-20 05:00:00 6.9 7 Norte 16 Nordeste 0 933.1 -1 84
2018-11-20 04:00:00 7.1 7 Nordeste 18 Nordeste 0 933.4 -1 84
2018-11-20 03:00:00 7.3 5 Norte 13 Nordeste 0 933.8 -1 82
2018-11-20 02:00:00 7.4 5 Norte 10 Norte 0 934.1 -0.9 86
2018-11-20 01:00:00 7.8 5 Norte 11 Norte 0 934.4 -0.8 85
2018-11-20 00:00:00 7.9 0 Calma 15 Nordeste 0 934.8 -0.2 85
2018-11-19 23:00:00 8.2 8 Nordeste 17 Norte 0 935 -0.1 85
2018-11-19 22:00:00 8.4 6 Nordeste 15 Nordeste 0 935.2 0.1 86
2018-11-19 21:00:00 8.1 3 Nordeste 9 Sudoeste 0 935 0 86
2018-11-19 20:00:00 9.3 3 Norte 10 Norte 0 935.1 0.2 82
2018-11-19 19:00:00 10.7 6 Nordeste 18 Nordeste 0 935.1 0 75
2018-11-19 18:00:00 11.3 6 Nordeste 16 Nordeste 0 935 -0.4 74
2018-11-19 17:00:00 14 4 Sudeste 14 Sudeste 0 934.9 -1.3 59
2018-11-19 16:00:00 15.8 2 Sudoeste 9 Oeste 0 935.1 -1.9 48
2018-11-19 15:00:00 15.6 2 Sudoeste 7 Oeste 0 935.4 -2.7 53
2018-11-19 14:00:00 13.4 3 Noroeste 10 Noroeste 0 936.2 -2.3 61
2018-11-19 13:00:00 12.1 3 Norte 8 Nordeste 0 937 -1.8 65
2018-11-19 12:00:00 11.2 3 Norte 11 Oeste 0 938.1 -0.9 70
2018-11-19 11:00:00 8.8 2 Sudoeste 7 Noroeste 0 938.5 -0.5 86
2018-11-19 10:00:00 7.2 2 Norte 9 Nordeste 0 938.8 0 90
2018-11-19 09:00:00 6.2 2 Nordeste 5 Nordeste 0 939 0.3 92
2018-11-19 08:00:00 5.7 0 Calma 6 Nordeste 0 939 0.4 92
2018-11-19 07:00:00 4.9 0 Calma 8 Norte 0 938.8 0 92
2018-11-19 06:00:00 4.8 5 Norte 13 Norte 0 938.7 -0.3 90
2018-11-19 05:00:00 5.3 4 Nordeste 9 Nordeste 0 938.6 -0.7 90
2018-11-19 04:00:00 6.2 0 Calma 8 Norte 0 938.8 -0.9 89
2018-11-19 03:00:00 7.4 4 Este 9 Nordeste 0 939 -1 86
2018-11-19 02:00:00 8 2 Noroeste 15 Sur 0 939.3 -0.7 85
2018-11-19 01:00:00 8.6 6 Sudeste 28 Sudeste 0.2 939.7 -0.3 84
2018-11-19 00:00:00 9 14 Sudeste 34 Sudeste 0.6 940 0.4 84
2018-11-18 23:00:00 9.6 15 Sudeste 36 Sudeste 0 940 0.5 77
2018-11-18 22:00:00 9.6 10 Sudeste 28 Sudeste 0 940 0.7 77
2018-11-18 21:00:00 9.5 12 Sudeste 28 Sudeste 0 939.6 0.4 79
2018-11-18 20:00:00 9.1 9 Sudeste 19 Sudeste 0 939.5 0.3 81
2018-11-18 19:00:00 9.2 0 Calma 17 Sudeste 0 939.3 0.2 83
2018-11-18 18:00:00 9.4 9 Sudeste 25 Este 0 939.2 0.1 81
2018-11-18 17:00:00 9.9 6 Sudeste 19 Sudeste 0 939.2 -0.3 81
2018-11-18 16:00:00 10.6 10 Sudeste 22 Sudeste 0 939.1 -0.9 78
2018-11-18 15:00:00 11.1 6 Sur 14 Sur 0 939.1 -1.4 80
2018-11-18 14:00:00 11.2 8 Sudeste 21 Sur 0 939.5 -1.5 80
2018-11-18 13:00:00 10.9 10 Sur 18 Sudeste 0 940 -1.2 82
2018-11-18 12:00:00 10.6 6 Sudeste 11 Sudeste 0 940.5 -0.7 86
2018-11-18 11:00:00 9.7 2 Sudoeste 6 Sudoeste 0 941 -0.3 88
2018-11-18 10:00:00 9.1 2 Nordeste 4 Sudeste 0 941.2 -0.1 91
2018-11-18 09:00:00 8.7 0 Calma 4 Sudeste 0 941.2 -0.4 92
2018-11-18 08:00:00 8.5 0 Calma 5 Sudeste 0 941.3 -0.6 92
2018-11-18 07:00:00 8.4 0 Calma 4 Sudoeste 0 941.3 -1.2 92
2018-11-18 06:00:00 8.4 0 Calma 4 Oeste 0 941.6 -1.5 92
2018-11-18 05:00:00 8.3 0 Calma 4 Sur 0 941.9 -1.9 92
2018-11-18 04:00:00 8.3 3 Norte 4 Norte 0 942.5 -2.1 93
2018-11-18 03:00:00 7.9 0 Calma 5 Nordeste 0 943.1 -1.7 93
2018-11-18 02:00:00 7.4 2 Este 5 Sudoeste 0 943.8 -1.5 93
2018-11-18 01:00:00 6.9 0 Calma 5 Norte 0 944.6 -1 93
2018-11-18 00:00:00 6.2 4 Norte 7 Norte 0 944.8 -1 93
2018-11-17 23:00:00 5.1 2 Noroeste 7 Nordeste 0 945.3 -0.6 91
2018-11-17 22:00:00 6 3 Norte 6 Nordeste 0 945.6 -0.4 90
2018-11-17 21:00:00 7 0 Calma 6 Nordeste 0 945.8 -0.3 89
2018-11-17 20:00:00 8.1 4 Este 18 Sudeste 0 945.9 -0.6 87
2018-11-17 19:00:00 10.3 3 Sudeste 16 Sur 0 946 -0.7 83
2018-11-17 18:00:00 12.1 8 Sur 21 Sur 0 946.1 -1.1 77
2018-11-17 17:00:00 14.9 11 Sur 23 Sur 0 946.5 -1.6 66
2018-11-17 16:00:00 16.1 9 Sur 21 Sudeste 0 946.7 -2.2 62
2018-11-17 15:00:00 16 9 Sudeste 19 Sudeste 0 947.2 -2.5 61
2018-11-17 14:00:00 15.8 5 Sudeste 13 Sudeste 0 948.1 -1.9 63
2018-11-17 13:00:00 13.1 3 Noroeste 10 Oeste 0 948.9 -1.4 74
2018-11-17 12:00:00 12.5 4 Sudoeste 9 Oeste 0 949.7 -0.8 78
2018-11-17 11:00:00 11.3 3 Sur 6 Sur 0 950 -0.2 86
2018-11-17 10:00:00 7.7 2 Oeste 6 Sudoeste 0 950.3 0.2 94
2018-11-17 09:00:00 5.8 2 Sudoeste 5 Noroeste 0 950.5 0.1 94
2018-11-17 08:00:00 5.3 3 Sudoeste 9 Sudoeste 0 950.2 -0.3 94
2018-11-17 07:00:00 5.2 2 Norte 6 Este 0 950.1 -0.4 94
2018-11-17 06:00:00 5 0 Calma 5 Nordeste 0 950.4 -0.3 93
2018-11-17 05:00:00 4.2 3 Nordeste 8 Oeste 0 950.5 -0.1 93
2018-11-17 04:00:00 4.5 2 Noroeste 5 Nordeste 0 950.5 -0.4 93
2018-11-17 03:00:00 5.3 4 Norte 10 Norte 0 950.7 -0.3 93
2018-11-17 02:00:00 5.2 0 Calma 6 Nordeste 0 950.6 -0.6 92
2018-11-17 01:00:00 5.7 0 Calma 5 Oeste 0 950.9 -0.1 92
2018-11-17 00:00:00 6.4 3 Noroeste 8 Nordeste 0 951 0 91
2018-11-16 23:00:00 7.3 4 Nordeste 8 Nordeste 0 951.2 -0.1 91
2018-11-16 22:00:00 7.9 3 Nordeste 6 Nordeste 0 951 -0.2 90
2018-11-16 21:00:00 9.3 2 Norte 14 Sudeste 0 951 -0.1 88
2018-11-16 20:00:00 10.4 4 Sur 13 Sur 0 951.3 0.3 87
2018-11-16 19:00:00 10.4 2 Este 7 Sur 0 951.2 0 84
2018-11-16 18:00:00 12.7 3 Sur 10 Sur 0 951.1 -0.7 75
2018-11-16 17:00:00 15.3 6 Sur 24 Sudeste 0 951 -1.4 66
2018-11-16 16:00:00 15.9 12 Sudeste 26 Sudeste 0 951.2 -1.7 65
2018-11-16 15:00:00 15.8 12 Sur 21 Sudeste 0 951.8 -1.8 67
2018-11-16 14:00:00 15.7 9 Sudeste 21 Este 0 952.4 -1.3 68
2018-11-16 13:00:00 12.7 3 Sudeste 8 Sudeste 0 952.9 -0.7 82
2018-11-16 12:00:00 10.5 2 Sur 5 Sur 0 953.6 0.4 89
2018-11-16 11:00:00 9.2 0 Calma 5 Noroeste 0 953.7 0.8 92
2018-11-16 10:00:00 8 0 Calma 5 Oeste 0 953.6 0.7 94
2018-11-16 09:00:00 7.3 0 Calma 6 Este 0 953.2 0.3 94
2018-11-16 08:00:00 6.6 0 Calma 4 Sur 0 952.9 0 94
2018-11-16 07:00:00 6.1 2 Sudeste 4 Sudeste 0 952.9 0 94
2018-11-16 06:00:00 5.3 0 Calma 8 Noroeste 0 952.9 -0.2 94
2018-11-16 05:00:00 5 0 Calma 7 Norte 0 952.9 -0.3 93
2018-11-16 04:00:00 4.9 3 Norte 8 Norte 0 952.9 -0.7 93
2018-11-16 03:00:00 5.3 0 Calma 6 Oeste 0 953.1 -0.5 92
2018-11-16 02:00:00 6.1 3 Nordeste 7 Oeste 0 953.2 -0.4 92
2018-11-16 01:00:00 6.8 3 Noroeste 9 Nordeste 0 953.6 0.3 92
2018-11-16 00:00:00 6.9 0 Calma 5 Nordeste 0 953.6 0.7 91
2018-11-15 23:00:00 7.6 0 Calma 4 Nordeste 0 953.6 1 90
2018-11-15 22:00:00 8.7 0 Calma 7 Nordeste 0 953.3 1.4 88
2018-11-15 21:00:00 10.5 3 Nordeste 8 Sur 0 952.9 1.6 85
2018-11-15 20:00:00 11.8 2 Sudeste 8 Sudeste 0 952.6 1.5 84
2018-11-15 19:00:00 12.6 5 Sudeste 15 Este 0 951.9 1 79
2018-11-15 18:00:00 14.2 9 Sudeste 20 Sudeste 0 951.3 0.3 74
2018-11-15 17:00:00 16.5 11 Sudeste 27 Sudeste 0 951.1 -0.2 63
2018-11-15 16:00:00 17.8 13 Sudeste 24 Sudeste 0 950.9 -0.9 55
2018-11-15 15:00:00 18.2 10 Sudeste 21 Sudeste 0 951 -1.6 56
2018-11-15 14:00:00 17.8 10 Sudeste 22 Sudeste 0 951.3 -1.4 59
2018-11-15 13:00:00 16.7 10 Sudeste 23 Sudeste 0 951.8 -1 62
2018-11-15 12:00:00 15.2 11 Sudeste 23 Sudeste 0 952.6 0.2 70
2018-11-15 11:00:00 13.4 12 Sudeste 21 Sudeste 0 952.7 0.8 81
2018-11-15 10:00:00 8.8 2 Nordeste 12 Sudeste 0 952.8 1.2 94
2018-11-15 09:00:00 6.1 3 Nordeste 8 Norte 0 952.4 1.1 94
2018-11-15 08:00:00 5.9 0 Calma 7 Norte 0 951.9 0.7 94
2018-11-15 07:00:00 5.8 4 Nordeste 8 Nordeste 0 951.6 0.4 94
2018-11-15 06:00:00 5.5 4 Norte 9 Noroeste 0 951.3 -0.2 94
2018-11-15 05:00:00 4.6 3 Norte 8 Este 0 951.2 -0.5 93
2018-11-15 04:00:00 4.6 3 Nordeste 7 Nordeste 0 951.2 -0.7 93
2018-11-15 03:00:00 5 2 Norte 5 Nordeste 0 951.5 -0.7 93
2018-11-15 02:00:00 5.5 0 Calma 9 Nordeste 0 951.7 -1 93
2018-11-15 01:00:00 6 2 Nordeste 9 Sudeste 0 951.9 -1.1 93
2018-11-15 00:00:00 6.4 2 Nordeste 7 Nordeste 0 952.2 -0.9 92
2018-11-14 23:00:00 6.9 3 Norte 8 Este 0 952.7 -0.6 91
2018-11-14 22:00:00 7.6 0 Calma 7 Norte 0 953 -0.3 91
2018-11-14 21:00:00 8.6 4 Norte 7 Norte 0 953.1 -0.2 90
2018-11-14 20:00:00 9.5 2 Oeste 7 Nordeste 0 953.3 -0.2 88
2018-11-14 19:00:00 11.1 3 Norte 5 Norte 0 953.3 -0.5 85
2018-11-14 18:00:00 12.7 2 Nordeste 8 Sudoeste 0 953.3 -0.8 79
2018-11-14 17:00:00 14 3 Sur 13 Sudoeste 0 953.5 -0.9 72
2018-11-14 16:00:00 14.2 7 Sur 18 Sur 0 953.8 -1.2 71
2018-11-14 15:00:00 14.5 6 Sur 24 Sudeste 0 954.1 -1.9 69
2018-11-14 14:00:00 15 9 Sudeste 17 Sudoeste 0 954.4 -2.1 68
2018-11-14 13:00:00 12.7 4 Sur 9 Sudoeste 0 955 -1.8 80
2018-11-14 12:00:00 11 0 Calma 4 Sudoeste 0 956 -0.8 88
2018-11-14 11:00:00 9 2 Noroeste 4 Oeste 0 956.5 -0.1 94
2018-11-14 10:00:00 7.4 0 Calma 4 Sur 0 956.8 0.1 94
2018-11-14 09:00:00 6.1 0 Calma 4 Sudeste 0 956.8 0.1 94
2018-11-14 08:00:00 5.1 2 Oeste 4 Oeste 0 956.6 -0.2 94
2018-11-14 07:00:00 4.5 2 Sudoeste 5 Este 0 956.7 -0.5 94
2018-11-14 06:00:00 3.9 0 Calma 4 Sudeste 0 956.7 -0.8 93
2018-11-14 05:00:00 4 2 Sur 4 Oeste 0 956.8 -1 93
2018-11-14 04:00:00 4.7 3 Sudoeste 9 Norte 0 957.2 -0.9 92
2018-11-14 03:00:00 5.3 0 Calma 6 Este 0 957.5 -0.8 92
2018-11-14 02:00:00 5.8 0 Calma 6 Oeste 0 957.8 -0.7 92
2018-11-14 01:00:00 6.9 3 Norte 6 Norte 0 958.1 -0.4 91
2018-11-14 00:00:00 7.8 2 Sur 5 Sur 0 958.3 -0.2 90
2018-11-13 23:00:00 9.3 0 Calma 6 Sur 0 958.5 0.1 87
2018-11-13 22:00:00 10.3 3 Oeste 8 Oeste 0 958.5 0.4 87
2018-11-13 21:00:00 10.8 2 Nordeste 5 Nordeste 0 958.5 0.9 87
2018-11-13 20:00:00 10.8 2 Norte 6 Este 0 958.4 0.9 87
2018-11-13 19:00:00 10.8 3 Sudeste 7 Este 0 958.1 0.5 84
2018-11-13 18:00:00 13.5 3 Sudeste 13 Sur 0 957.6 0 70
2018-11-13 17:00:00 16.2 7 Sur 13 Sur 0 957.5 -0.5 61
2018-11-13 16:00:00 16.7 6 Sudeste 16 Sudeste 0 957.6 -1 58
2018-11-13 15:00:00 16.4 5 Sudeste 16 Sudeste 0 957.6 -1.7 60
2018-11-13 14:00:00 15.3 6 Sudeste 14 Sudeste 0 958 -1.7 64
2018-11-13 13:00:00 13.2 4 Sudeste 10 Sur 0 958.6 -1 71
2018-11-13 12:00:00 11.6 3 Noroeste 8 Norte 0 959.3 0.2 79
2018-11-13 11:00:00 10.5 2 Noroeste 8 Nordeste 0 959.7 1.4 82
2018-11-13 10:00:00 9.6 2 Nordeste 5 Nordeste 0 959.6 1.7 87
2018-11-13 09:00:00 9.1 0 Calma 4 Noroeste 0 959.1 1.7 90
2018-11-13 08:00:00 9 2 Sudoeste 5 Noroeste 0 958.3 1.3 90
2018-11-13 07:00:00 9 3 Noroeste 5 Oeste 0 957.9 0.9 90
2018-11-13 06:00:00 9.1 0 Calma 13 Sudeste 0 957.4 0.7 89
2018-11-13 05:00:00 9.1 0 Calma 6 Noroeste 0 957 0.6 88
2018-11-13 04:00:00 9 3 Noroeste 5 Norte 0 957 1 89
2018-11-13 03:00:00 9.4 0 Calma 4 Este 0 956.7 1.3 90
2018-11-13 02:00:00 9.5 2 Oeste 6 Noroeste 0 956.4 1.5 90
2018-11-13 01:00:00 9.6 3 Oeste 10 Noroeste 0 956 2 89
2018-11-13 00:00:00 9.7 5 Noroeste 16 Nordeste 0 955.4 2.3 90
2018-11-12 23:00:00 9.9 8 Norte 15 Norte 0 954.9 2.3 91
2018-11-12 22:00:00 10.4 2 Norte 8 Norte 0 954 2.2 93
2018-11-12 21:00:00 10.5 3 Sudoeste 6 Noroeste 0.2 953.1 2.3 92
2018-11-12 20:00:00 10.5 0 Calma 6 Oeste 1.4 952.6 2.7 92
2018-11-12 19:00:00 10.6 0 Calma 5 Norte 0.8 951.8 2.2 91
2018-11-12 18:00:00 10.8 2 Sudoeste 4 Sur 1.2 950.8 1.6 89
2018-11-12 17:00:00 11.2 2 Este 6 Nordeste 1.2 949.9 0.8 88
2018-11-12 16:00:00 11.2 2 Norte 11 Norte 0.8 949.6 0.2 87
2018-11-12 15:00:00 12.4 3 Noroeste 9 Noroeste 0 949.2 -0.2 75
2018-11-12 14:00:00 12.8 4 Noroeste 10 Oeste 0 949.1 -0.2 73
2018-11-12 13:00:00 12.8 3 Oeste 7 Sudoeste 0 949.4 0.8 71
2018-11-12 12:00:00 11.5 0 Calma 6 Oeste 0 949.4 1.4 85
2018-11-12 11:00:00 10.6 0 Calma 6 Oeste 0 949.3 2.2 88
2018-11-12 10:00:00 9.8 0 Calma 7 Sudeste 0 948.6 2 91
2018-11-12 09:00:00 9.4 2 Sudeste 6 Sur 0 948 2.4 92
2018-11-12 08:00:00 9.3 0 Calma 7 Sur 0.6 947.1 2.4 91
2018-11-12 07:00:00 9.5 3 Este 6 Sur 0.4 946.6 2.3 90
2018-11-12 06:00:00 9.6 3 Este 5 Nordeste 0.2 945.6 2.5 88
2018-11-12 05:00:00 9.6 3 Nordeste 9 Este 0 944.7 1.2 86
2018-11-12 04:00:00 9.7 2 Norte 8 Oeste 0 944.3 1.3 86
2018-11-12 03:00:00 9.8 3 Oeste 18 Nordeste 0 943.1 1.2 83
2018-11-12 02:00:00 10.4 5 Sudoeste 29 Sudoeste 0.2 943.5 1.5 83
2018-11-12 01:00:00 11.2 12 Oeste 29 Oeste 0 943 1.1 79
2018-11-12 00:00:00 12 5 Norte 12 Norte 0 941.9 0.2 81
2018-11-11 23:00:00 12.6 5 Norte 17 Sur 0 942 0.2 79
2018-11-11 22:00:00 14.1 5 Sur 25 Sudeste 0 941.9 0.2 68
2018-11-11 21:00:00 14.5 9 Sur 23 Sudeste 0 941.7 0.2 67
2018-11-11 20:00:00 14.8 13 Sur 48 Sur 0.2 941.8 0 66
2018-11-11 19:00:00 15.7 22 Sur 68 Sur 0 941.7 -0.5 59
2018-11-11 18:00:00 15 15 Sudeste 50 Sudeste 0 941.5 -0.6 65
2018-11-11 17:00:00 15.4 14 Sur 49 Sur 0 941.8 -0.8 62
2018-11-11 16:00:00 16.2 17 Sur 41 Sur 0 942.2 -0.8 57
2018-11-11 15:00:00 16.9 19 Sur 44 Sudoeste 0 942.1 -1.6 55
2018-11-11 14:00:00 17.6 16 Sur 45 Oeste 0 942.6 -1.6 53
2018-11-11 13:00:00 17 15 Sudoeste 48 Sur 0 943 -1.3 57
2018-11-11 12:00:00 15.7 15 Sudoeste 49 Sur 0 943.7 -0.4 62
2018-11-11 11:00:00 15.9 10 Sudoeste 40 Sudoeste 0 944.2 1 56
2018-11-11 10:00:00 14.9 13 Sudoeste 47 Oeste 0 944.3 1.3 60
2018-11-11 09:00:00 13.9 10 Sur 45 Sudoeste 0 944.1 1.7 63
2018-11-11 08:00:00 13.4 13 Sudoeste 50 Sudoeste 0 943.2 0.1 63
2018-11-11 07:00:00 13.1 14 Sudoeste 54 Sudoeste 0 943 0.1 63
2018-11-11 06:00:00 13.3 14 Sudoeste 31 Oeste 0 942.4 -1.3 64
2018-11-11 05:00:00 12.8 15 Sur 41 Sur 0 943.1 -0.8 64
2018-11-11 04:00:00 12.8 18 Sudoeste 43 Sudoeste 0 942.9 -1.5 63
2018-11-11 03:00:00 12.3 10 Sudoeste 36 Sudoeste 0 943.7 -0.5 64
2018-11-11 02:00:00 12.6 14 Sudoeste 35 Oeste 0 943.9 -0.4 65
2018-11-11 01:00:00 12.7 11 Sudoeste 29 Sudoeste 0 944.4 0.7 65
2018-11-11 00:00:00 12.1 5 Sudoeste 31 Oeste 0 944.2 0.8 71
2018-11-10 23:00:00 12.3 12 Sudoeste 44 Sudoeste 0 944.3 1.9 66
2018-11-10 22:00:00 12.6 8 Sudoeste 33 Sudoeste 0 943.7 1.9 62
2018-11-10 21:00:00 12.6 8 Sudoeste 27 Sudoeste 0 943.4 2.3 67
2018-11-10 20:00:00 12.6 11 Sudoeste 35 Sudoeste 0 942.4 1.9 70
2018-11-10 19:00:00 12.8 7 Sudoeste 19 Oeste 0.2 941.8 1.3 75
2018-11-10 18:00:00 13.3 8 Oeste 43 Sudoeste 0.4 941.1 0.9 78
2018-11-10 17:00:00 15.5 18 Sudoeste 51 Sudoeste 0 940.5 0 60
2018-11-10 16:00:00 15 18 Sudoeste 49 Sudoeste 0 940.5 0.2 63
2018-11-10 15:00:00 15.9 15 Sudoeste 48 Sur 0 940.2 -1.1 61
2018-11-10 14:00:00 17.1 21 Sudoeste 60 Sudoeste 0 940.5 -0.8 52
2018-11-10 13:00:00 17.9 16 Sudoeste 45 Sudoeste 0 940.3 -1.1 52
2018-11-10 12:00:00 17.4 14 Sudoeste 36 Sudoeste 0 941.3 0.5 53
2018-11-10 11:00:00 16.3 14 Sudoeste 41 Oeste 0 941.3 1.2 56
2018-11-10 10:00:00 14.1 17 Sudoeste 46 Oeste 0 941.4 1.2 71
2018-11-10 09:00:00 14.1 18 Sudoeste 66 Sur 0 940.8 0 69
2018-11-10 08:00:00 13.7 21 Sudoeste 63 Sudoeste 0 940.1 -1.1 70
2018-11-10 07:00:00 13.8 24 Sudoeste 62 Sudoeste 0 940.2 -2.2 69
2018-11-10 06:00:00 13.1 13 Sur 58 Sudoeste 0 940.8 -2.4 72
2018-11-10 05:00:00 13.4 17 Sur 54 Sur 0 941.2 -2.8 69
2018-11-10 04:00:00 13.3 23 Sudoeste 53 Sudoeste 0 942.4 -2.1 69
2018-11-10 03:00:00 12.6 19 Sudoeste 46 Sur 0 943.2 -1.9 73
2018-11-10 02:00:00 12.7 17 Sudoeste 50 Sur 0 944 -1.6 72
2018-11-10 01:00:00 12.2 22 Sudoeste 41 Sudoeste 0 944.5 -1.5 73
2018-11-10 00:00:00 11.2 11 Sudoeste 40 Sur 0.2 945.1 -1.6 76